sensor_id;sensor_type;location;lat;lon;timestamp;temperature;humidity
65692;DHT22;52411;52.716;6.696;2022-10-17T00:01:39;13.80;99.90
65692;DHT22;52411;52.716;6.696;2022-10-17T00:04:05;13.80;99.90
65692;DHT22;52411;52.716;6.696;2022-10-17T00:06:31;13.90;99.90
65692;DHT22;52411;52.716;6.696;2022-10-17T00:08:56;13.80;99.90
65692;DHT22;52411;52.716;6.696;2022-10-17T00:11:23;13.80;99.90
65692;DHT22;52411;52.716;6.696;2022-10-17T00:13:50;13.80;99.90
65692;DHT22;52411;52.716;6.696;2022-10-17T00:16:29;13.80;99.90
65692;DHT22;52411;52.716;6.696;2022-10-17T00:18:56;13.90;99.90
65692;DHT22;52411;52.716;6.696;2022-10-17T00:21:22;13.80;99.90
65692;DHT22;52411;52.716;6.696;2022-10-17T00:23:48;13.90;99.90
65692;DHT22;52411;52.716;6.696;2022-10-17T00:26:15;13.90;99.90
65692;DHT22;52411;52.716;6.696;2022-10-17T00:28:41;13.90;99.90
65692;DHT22;52411;52.716;6.696;2022-10-17T00:31:07;13.80;99.90
65692;DHT22;52411;52.716;6.696;2022-10-17T00:33:34;13.80;99.90
65692;DHT22;52411;52.716;6.696;2022-10-17T00:36:03;13.80;99.90
65692;DHT22;52411;52.716;6.696;2022-10-17T00:38:29;13.80;99.90
65692;DHT22;52411;52.716;6.696;2022-10-17T00:40:55;13.80;99.90
65692;DHT22;52411;52.716;6.696;2022-10-17T00:43:21;13.80;99.90
65692;DHT22;52411;52.716;6.696;2022-10-17T00:45:46;13.80;99.90
65692;DHT22;52411;52.716;6.696;2022-10-17T00:48:12;13.80;99.90
65692;DHT22;52411;52.716;6.696;2022-10-17T00:50:40;13.90;99.90
65692;DHT22;52411;52.716;6.696;2022-10-17T00:53:07;13.90;99.90
65692;DHT22;52411;52.716;6.696;2022-10-17T00:55:38;13.90;99.90
65692;DHT22;52411;52.716;6.696;2022-10-17T00:58:06;13.90;99.90
65692;DHT22;52411;52.716;6.696;2022-10-17T01:00:32;13.90;99.90
65692;DHT22;52411;52.716;6.696;2022-10-17T01:02:57;13.80;99.90
65692;DHT22;52411;52.716;6.696;2022-10-17T01:05:23;13.80;99.90
65692;DHT22;52411;52.716;6.696;2022-10-17T01:07:51;13.70;99.90
65692;DHT22;52411;52.716;6.696;2022-10-17T01:10:17;13.60;99.90
65692;DHT22;52411;52.716;6.696;2022-10-17T01:13:07;13.60;99.90
65692;DHT22;52411;52.716;6.696;2022-10-17T01:27:02;13.30;99.90
65692;DHT22;52411;52.716;6.696;2022-10-17T01:29:46;13.20;99.90
65692;DHT22;52411;52.716;6.696;2022-10-17T01:40:26;13.10;99.90
65692;DHT22;52411;52.716;6.696;2022-10-17T01:45:43;13.10;99.90
65692;DHT22;52411;52.716;6.696;2022-10-17T01:48:31;13.10;99.90
65692;DHT22;52411;52.716;6.696;2022-10-17T01:51:06;13.10;99.90
65692;DHT22;52411;52.716;6.696;2022-10-17T01:53:36;13.10;99.90
65692;DHT22;52411;52.716;6.696;2022-10-17T01:56:06;13.10;99.90
65692;DHT22;52411;52.716;6.696;2022-10-17T01:58:40;13.10;99.90
65692;DHT22;52411;52.716;6.696;2022-10-17T02:01:08;13.10;99.90
65692;DHT22;52411;52.716;6.696;2022-10-17T02:03:35;13.10;99.90
65692;DHT22;52411;52.716;6.696;2022-10-17T02:06:02;13.10;99.90
65692;DHT22;52411;52.716;6.696;2022-10-17T02:08:49;13.10;99.90
65692;DHT22;52411;52.716;6.696;2022-10-17T02:11:22;13.10;99.90
65692;DHT22;52411;52.716;6.696;2022-10-17T02:14:29;13.10;99.90
65692;DHT22;52411;52.716;6.696;2022-10-17T02:20:19;13.10;99.90
65692;DHT22;52411;52.716;6.696;2022-10-17T02:28:18;13.00;99.90
65692;DHT22;52411;52.716;6.696;2022-10-17T02:30:53;13.00;99.90
65692;DHT22;52411;52.716;6.696;2022-10-17T02:33:28;13.00;99.90
65692;DHT22;52411;52.716;6.696;2022-10-17T02:35:59;13.00;99.90
65692;DHT22;52411;52.716;6.696;2022-10-17T02:38:28;13.00;99.90
65692;DHT22;52411;52.716;6.696;2022-10-17T02:40:55;13.00;99.90
65692;DHT22;52411;52.716;6.696;2022-10-17T02:43:21;13.10;99.90
65692;DHT22;52411;52.716;6.696;2022-10-17T02:45:47;13.10;99.90
65692;DHT22;52411;52.716;6.696;2022-10-17T02:51:18;13.10;99.90
65692;DHT22;52411;52.716;6.696;2022-10-17T02:53:57;13.10;99.90
65692;DHT22;52411;52.716;6.696;2022-10-17T02:56:27;13.10;99.90
65692;DHT22;52411;52.716;6.696;2022-10-17T02:58:57;13.20;99.90
65692;DHT22;52411;52.716;6.696;2022-10-17T03:01:24;13.20;99.90
65692;DHT22;52411;52.716;6.696;2022-10-17T03:03:50;13.10;99.90
65692;DHT22;52411;52.716;6.696;2022-10-17T03:06:16;13.10;99.90
65692;DHT22;52411;52.716;6.696;2022-10-17T03:08:42;13.10;99.90
65692;DHT22;52411;52.716;6.696;2022-10-17T03:11:07;13.20;99.90
65692;DHT22;52411;52.716;6.696;2022-10-17T03:13:33;13.20;99.90
65692;DHT22;52411;52.716;6.696;2022-10-17T03:15:58;13.20;99.90
65692;DHT22;52411;52.716;6.696;2022-10-17T03:18:24;13.10;99.90
65692;DHT22;52411;52.716;6.696;2022-10-17T03:20:50;13.20;99.90
65692;DHT22;52411;52.716;6.696;2022-10-17T03:23:15;13.20;99.90
65692;DHT22;52411;52.716;6.696;2022-10-17T03:25:41;13.20;99.90
65692;DHT22;52411;52.716;6.696;2022-10-17T03:28:07;13.20;99.90
65692;DHT22;52411;52.716;6.696;2022-10-17T03:30:33;13.20;99.90
65692;DHT22;52411;52.716;6.696;2022-10-17T03:32:59;13.30;99.90
65692;DHT22;52411;52.716;6.696;2022-10-17T03:35:25;13.30;99.90
65692;DHT22;52411;52.716;6.696;2022-10-17T03:37:51;13.20;99.90
65692;DHT22;52411;52.716;6.696;2022-10-17T03:40:17;13.30;99.90
65692;DHT22;52411;52.716;6.696;2022-10-17T03:42:43;13.30;99.90
65692;DHT22;52411;52.716;6.696;2022-10-17T03:45:08;13.20;99.90
65692;DHT22;52411;52.716;6.696;2022-10-17T03:47:34;13.20;99.90
65692;DHT22;52411;52.716;6.696;2022-10-17T03:50:00;13.20;99.90
65692;DHT22;52411;52.716;6.696;2022-10-17T03:52:25;13.20;99.90
65692;DHT22;52411;52.716;6.696;2022-10-17T03:54:51;13.20;99.90
65692;DHT22;52411;52.716;6.696;2022-10-17T03:57:18;13.30;99.90
65692;DHT22;52411;52.716;6.696;2022-10-17T03:59:43;13.30;99.90
65692;DHT22;52411;52.716;6.696;2022-10-17T04:02:09;13.30;99.90
65692;DHT22;52411;52.716;6.696;2022-10-17T04:04:35;13.30;99.90
65692;DHT22;52411;52.716;6.696;2022-10-17T04:07:00;13.30;99.90
65692;DHT22;52411;52.716;6.696;2022-10-17T04:09:26;13.30;99.90
65692;DHT22;52411;52.716;6.696;2022-10-17T04:11:51;13.20;99.90
65692;DHT22;52411;52.716;6.696;2022-10-17T04:14:17;13.20;99.90
65692;DHT22;52411;52.716;6.696;2022-10-17T04:16:43;13.20;99.90
65692;DHT22;52411;52.716;6.696;2022-10-17T04:19:12;13.20;99.90
65692;DHT22;52411;52.716;6.696;2022-10-17T04:21:38;13.20;99.90
65692;DHT22;52411;52.716;6.696;2022-10-17T04:24:04;13.20;99.90
65692;DHT22;52411;52.716;6.696;2022-10-17T04:26:30;13.30;99.90
65692;DHT22;52411;52.716;6.696;2022-10-17T04:28:55;13.30;99.90
65692;DHT22;52411;52.716;6.696;2022-10-17T04:31:21;13.30;99.90
65692;DHT22;52411;52.716;6.696;2022-10-17T04:33:48;13.40;99.90
65692;DHT22;52411;52.716;6.696;2022-10-17T04:36:16;13.30;99.90
65692;DHT22;52411;52.716;6.696;2022-10-17T04:38:42;13.40;99.90
65692;DHT22;52411;52.716;6.696;2022-10-17T04:41:13;13.30;99.90
65692;DHT22;52411;52.716;6.696;2022-10-17T04:43:39;13.30;99.90
65692;DHT22;52411;52.716;6.696;2022-10-17T04:46:07;13.30;99.90
65692;DHT22;52411;52.716;6.696;2022-10-17T04:48:33;13.30;99.90
65692;DHT22;52411;52.716;6.696;2022-10-17T04:51:07;13.30;99.90
65692;DHT22;52411;52.716;6.696;2022-10-17T04:53:35;13.30;99.90
65692;DHT22;52411;52.716;6.696;2022-10-17T04:56:06;13.30;99.90
65692;DHT22;52411;52.716;6.696;2022-10-17T04:58:31;13.30;99.90
65692;DHT22;52411;52.716;6.696;2022-10-17T05:00:57;13.30;99.90
65692;DHT22;52411;52.716;6.696;2022-10-17T05:03:23;13.40;99.90
65692;DHT22;52411;52.716;6.696;2022-10-17T05:05:48;13.40;99.90
65692;DHT22;52411;52.716;6.696;2022-10-17T05:08:14;13.40;99.90
65692;DHT22;52411;52.716;6.696;2022-10-17T05:10:43;13.40;99.90
65692;DHT22;52411;52.716;6.696;2022-10-17T05:13:09;13.40;99.90
65692;DHT22;52411;52.716;6.696;2022-10-17T05:15:36;13.50;99.90
65692;DHT22;52411;52.716;6.696;2022-10-17T05:18:02;13.50;99.90
65692;DHT22;52411;52.716;6.696;2022-10-17T05:20:28;13.60;99.90
65692;DHT22;52411;52.716;6.696;2022-10-17T05:22:54;13.60;99.90
65692;DHT22;52411;52.716;6.696;2022-10-17T05:25:20;13.60;99.90
65692;DHT22;52411;52.716;6.696;2022-10-17T05:27:45;13.60;99.90
65692;DHT22;52411;52.716;6.696;2022-10-17T05:30:11;13.60;99.90
65692;DHT22;52411;52.716;6.696;2022-10-17T05:32:37;13.60;99.90
65692;DHT22;52411;52.716;6.696;2022-10-17T05:35:03;13.60;99.90
65692;DHT22;52411;52.716;6.696;2022-10-17T05:37:30;13.70;99.90
65692;DHT22;52411;52.716;6.696;2022-10-17T05:39:56;13.70;99.90
65692;DHT22;52411;52.716;6.696;2022-10-17T05:42:22;13.80;99.90
65692;DHT22;52411;52.716;6.696;2022-10-17T05:44:48;13.90;99.90
65692;DHT22;52411;52.716;6.696;2022-10-17T05:47:13;14.10;99.90
65692;DHT22;52411;52.716;6.696;2022-10-17T05:49:39;14.20;99.90
65692;DHT22;52411;52.716;6.696;2022-10-17T05:52:05;14.40;99.90
65692;DHT22;52411;52.716;6.696;2022-10-17T05:54:30;14.50;99.90
65692;DHT22;52411;52.716;6.696;2022-10-17T05:56:56;14.60;99.90
65692;DHT22;52411;52.716;6.696;2022-10-17T05:59:24;14.70;99.90
65692;DHT22;52411;52.716;6.696;2022-10-17T06:01:49;14.80;99.90
65692;DHT22;52411;52.716;6.696;2022-10-17T06:04:15;14.80;99.90
65692;DHT22;52411;52.716;6.696;2022-10-17T06:06:41;14.90;99.90
65692;DHT22;52411;52.716;6.696;2022-10-17T06:09:07;14.90;99.90
65692;DHT22;52411;52.716;6.696;2022-10-17T06:11:34;15.10;99.90
65692;DHT22;52411;52.716;6.696;2022-10-17T06:14:00;15.20;99.90
65692;DHT22;52411;52.716;6.696;2022-10-17T06:16:25;15.20;99.90
65692;DHT22;52411;52.716;6.696;2022-10-17T06:18:51;15.20;99.90
65692;DHT22;52411;52.716;6.696;2022-10-17T06:21:24;15.30;99.90
65692;DHT22;52411;52.716;6.696;2022-10-17T06:23:50;15.30;99.90
65692;DHT22;52411;52.716;6.696;2022-10-17T06:26:16;15.40;99.90
65692;DHT22;52411;52.716;6.696;2022-10-17T06:28:42;15.40;99.90
65692;DHT22;52411;52.716;6.696;2022-10-17T06:31:10;15.40;99.90
65692;DHT22;52411;52.716;6.696;2022-10-17T06:33:36;15.40;99.90
65692;DHT22;52411;52.716;6.696;2022-10-17T06:36:03;15.40;99.90
65692;DHT22;52411;52.716;6.696;2022-10-17T06:38:29;15.40;99.90
65692;DHT22;52411;52.716;6.696;2022-10-17T06:41:05;15.40;99.90
65692;DHT22;52411;52.716;6.696;2022-10-17T06:43:33;15.50;99.90
65692;DHT22;52411;52.716;6.696;2022-10-17T06:45:59;15.50;99.90
65692;DHT22;52411;52.716;6.696;2022-10-17T06:48:24;15.60;99.90
65692;DHT22;52411;52.716;6.696;2022-10-17T06:50:50;15.50;99.90
65692;DHT22;52411;52.716;6.696;2022-10-17T06:53:16;15.50;99.90
65692;DHT22;52411;52.716;6.696;2022-10-17T06:55:41;15.60;99.90
65692;DHT22;52411;52.716;6.696;2022-10-17T06:58:07;15.60;99.90
65692;DHT22;52411;52.716;6.696;2022-10-17T07:00:33;15.60;99.90
65692;DHT22;52411;52.716;6.696;2022-10-17T07:02:58;15.70;99.90
65692;DHT22;52411;52.716;6.696;2022-10-17T07:05:24;15.70;99.90
65692;DHT22;52411;52.716;6.696;2022-10-17T07:07:49;15.80;99.90
65692;DHT22;52411;52.716;6.696;2022-10-17T07:10:15;15.80;99.90
65692;DHT22;52411;52.716;6.696;2022-10-17T07:12:41;15.90;99.90
65692;DHT22;52411;52.716;6.696;2022-10-17T07:15:09;15.90;99.90
65692;DHT22;52411;52.716;6.696;2022-10-17T07:17:34;16.00;99.90
65692;DHT22;52411;52.716;6.696;2022-10-17T07:20:00;16.00;99.90
65692;DHT22;52411;52.716;6.696;2022-10-17T07:22:26;16.20;99.90
65692;DHT22;52411;52.716;6.696;2022-10-17T07:24:51;16.20;99.90
65692;DHT22;52411;52.716;6.696;2022-10-17T07:27:17;16.30;99.90
65692;DHT22;52411;52.716;6.696;2022-10-17T07:29:42;16.40;99.90
65692;DHT22;52411;52.716;6.696;2022-10-17T07:32:08;16.50;99.90
65692;DHT22;52411;52.716;6.696;2022-10-17T07:34:35;16.50;99.90
65692;DHT22;52411;52.716;6.696;2022-10-17T07:37:01;16.60;99.90
65692;DHT22;52411;52.716;6.696;2022-10-17T07:39:27;16.70;99.90
65692;DHT22;52411;52.716;6.696;2022-10-17T07:41:53;16.80;99.90
65692;DHT22;52411;52.716;6.696;2022-10-17T07:44:19;16.90;99.90
65692;DHT22;52411;52.716;6.696;2022-10-17T07:46:44;17.00;99.90
65692;DHT22;52411;52.716;6.696;2022-10-17T07:49:10;17.00;99.90
65692;DHT22;52411;52.716;6.696;2022-10-17T07:51:35;17.00;99.90
65692;DHT22;52411;52.716;6.696;2022-10-17T07:54:01;17.00;99.90
65692;DHT22;52411;52.716;6.696;2022-10-17T07:56:28;17.00;99.90
65692;DHT22;52411;52.716;6.696;2022-10-17T07:58:54;16.90;99.90
65692;DHT22;52411;52.716;6.696;2022-10-17T08:01:20;16.90;99.90
65692;DHT22;52411;52.716;6.696;2022-10-17T08:03:46;16.90;99.90
65692;DHT22;52411;52.716;6.696;2022-10-17T08:06:13;16.90;99.90
65692;DHT22;52411;52.716;6.696;2022-10-17T08:08:39;16.90;99.90
65692;DHT22;52411;52.716;6.696;2022-10-17T08:11:07;16.90;99.90
65692;DHT22;52411;52.716;6.696;2022-10-17T08:13:34;17.00;99.90
65692;DHT22;52411;52.716;6.696;2022-10-17T08:16:06;17.00;99.90
65692;DHT22;52411;52.716;6.696;2022-10-17T08:18:33;17.00;99.90
65692;DHT22;52411;52.716;6.696;2022-10-17T08:21:00;17.00;99.90
65692;DHT22;52411;52.716;6.696;2022-10-17T08:23:27;17.00;99.90
65692;DHT22;52411;52.716;6.696;2022-10-17T08:25:53;17.00;99.90
65692;DHT22;52411;52.716;6.696;2022-10-17T08:28:19;17.00;99.90
65692;DHT22;52411;52.716;6.696;2022-10-17T08:30:44;17.00;99.90
65692;DHT22;52411;52.716;6.696;2022-10-17T08:33:10;17.00;99.90
65692;DHT22;52411;52.716;6.696;2022-10-17T08:35:35;17.00;99.90
65692;DHT22;52411;52.716;6.696;2022-10-17T08:38:01;17.00;99.90
65692;DHT22;52411;52.716;6.696;2022-10-17T08:40:29;16.90;99.90
65692;DHT22;52411;52.716;6.696;2022-10-17T08:46:23;17.00;99.90
65692;DHT22;52411;52.716;6.696;2022-10-17T08:48:43;17.00;99.90
65692;DHT22;52411;52.716;6.696;2022-10-17T08:51:29;17.10;99.90
65692;DHT22;52411;52.716;6.696;2022-10-17T08:57:13;17.20;99.90
65692;DHT22;52411;52.716;6.696;2022-10-17T08:59:40;17.30;99.90
65692;DHT22;52411;52.716;6.696;2022-10-17T09:02:23;17.30;99.90
65692;DHT22;52411;52.716;6.696;2022-10-17T09:04:56;17.40;99.90
65692;DHT22;52411;52.716;6.696;2022-10-17T09:10:52;17.40;99.90
65692;DHT22;52411;52.716;6.696;2022-10-17T09:16:13;17.40;99.90
65692;DHT22;52411;52.716;6.696;2022-10-17T09:18:58;17.40;99.90
65692;DHT22;52411;52.716;6.696;2022-10-17T09:21:48;17.50;99.90
65692;DHT22;52411;52.716;6.696;2022-10-17T09:24:26;17.70;99.90
65692;DHT22;52411;52.716;6.696;2022-10-17T09:26:53;17.70;99.90
65692;DHT22;52411;52.716;6.696;2022-10-17T09:29:25;17.80;99.90
65692;DHT22;52411;52.716;6.696;2022-10-17T09:32:20;17.90;99.90
65692;DHT22;52411;52.716;6.696;2022-10-17T09:34:47;18.00;99.90
65692;DHT22;52411;52.716;6.696;2022-10-17T09:37:14;18.00;99.90
65692;DHT22;52411;52.716;6.696;2022-10-17T09:39:42;17.90;99.90
65692;DHT22;52411;52.716;6.696;2022-10-17T09:42:12;17.80;99.90
65692;DHT22;52411;52.716;6.696;2022-10-17T09:47:21;17.70;99.90
65692;DHT22;52411;52.716;6.696;2022-10-17T09:49:48;17.70;99.90
65692;DHT22;52411;52.716;6.696;2022-10-17T09:52:35;17.60;99.90
65692;DHT22;52411;52.716;6.696;2022-10-17T09:55:04;17.70;99.90
65692;DHT22;52411;52.716;6.696;2022-10-17T09:58:00;17.60;99.90
65692;DHT22;52411;52.716;6.696;2022-10-17T10:00:28;17.60;99.90
65692;DHT22;52411;52.716;6.696;2022-10-17T10:03:20;17.50;99.90
65692;DHT22;52411;52.716;6.696;2022-10-17T10:06:13;17.40;99.90
65692;DHT22;52411;52.716;6.696;2022-10-17T10:08:56;17.40;99.90
65692;DHT22;52411;52.716;6.696;2022-10-17T10:11:53;17.30;99.90
65692;DHT22;52411;52.716;6.696;2022-10-17T10:14:30;17.20;99.90
65692;DHT22;52411;52.716;6.696;2022-10-17T10:16:59;17.20;99.90
65692;DHT22;52411;52.716;6.696;2022-10-17T10:19:28;17.10;99.90
65692;DHT22;52411;52.716;6.696;2022-10-17T10:22:15;17.10;99.90
65692;DHT22;52411;52.716;6.696;2022-10-17T10:24:41;17.10;99.90
65692;DHT22;52411;52.716;6.696;2022-10-17T10:27:13;17.10;99.90
65692;DHT22;52411;52.716;6.696;2022-10-17T10:29:58;17.10;99.90
65692;DHT22;52411;52.716;6.696;2022-10-17T10:32:24;17.00;99.90
65692;DHT22;52411;52.716;6.696;2022-10-17T10:34:55;17.00;99.90
65692;DHT22;52411;52.716;6.696;2022-10-17T10:37:26;17.00;99.90
65692;DHT22;52411;52.716;6.696;2022-10-17T10:40:02;17.00;99.90
65692;DHT22;52411;52.716;6.696;2022-10-17T10:42:36;17.00;99.90
65692;DHT22;52411;52.716;6.696;2022-10-17T10:45:18;17.00;99.90
65692;DHT22;52411;52.716;6.696;2022-10-17T10:47:58;17.00;99.90
65692;DHT22;52411;52.716;6.696;2022-10-17T10:50:39;16.90;99.90
65692;DHT22;52411;52.716;6.696;2022-10-17T11:01:24;16.90;99.90
65692;DHT22;52411;52.716;6.696;2022-10-17T11:04:18;16.90;99.90
65692;DHT22;52411;52.716;6.696;2022-10-17T11:06:45;16.90;99.90
65692;DHT22;52411;52.716;6.696;2022-10-17T11:11:56;17.00;99.90
65692;DHT22;52411;52.716;6.696;2022-10-17T11:22:47;17.00;99.90
65692;DHT22;52411;52.716;6.696;2022-10-17T11:27:38;17.10;99.90
65692;DHT22;52411;52.716;6.696;2022-10-17T11:30:05;17.10;99.90
65692;DHT22;52411;52.716;6.696;2022-10-17T11:33:00;17.10;99.90
65692;DHT22;52411;52.716;6.696;2022-10-17T11:35:39;17.20;99.90
65692;DHT22;52411;52.716;6.696;2022-10-17T11:38:30;17.30;99.90
65692;DHT22;52411;52.716;6.696;2022-10-17T11:40:58;17.30;99.90
65692;DHT22;52411;52.716;6.696;2022-10-17T11:43:34;17.30;99.90
65692;DHT22;52411;52.716;6.696;2022-10-17T11:46:18;17.30;99.90
65692;DHT22;52411;52.716;6.696;2022-10-17T11:49:11;17.30;99.90
65692;DHT22;52411;52.716;6.696;2022-10-17T11:51:47;17.30;99.90
65692;DHT22;52411;52.716;6.696;2022-10-17T11:54:18;17.30;99.90
65692;DHT22;52411;52.716;6.696;2022-10-17T12:00:17;17.20;99.90
65692;DHT22;52411;52.716;6.696;2022-10-17T12:08:24;17.10;99.90
65692;DHT22;52411;52.716;6.696;2022-10-17T12:21:27;17.20;99.90
65692;DHT22;52411;52.716;6.696;2022-10-17T12:24:26;17.30;99.90
65692;DHT22;52411;52.716;6.696;2022-10-17T12:26:52;17.40;99.90
65692;DHT22;52411;52.716;6.696;2022-10-17T12:29:29;17.50;99.90
65692;DHT22;52411;52.716;6.696;2022-10-17T12:32:11;17.60;99.90
65692;DHT22;52411;52.716;6.696;2022-10-17T12:34:37;17.60;99.90
65692;DHT22;52411;52.716;6.696;2022-10-17T12:37:03;17.70;99.90
65692;DHT22;52411;52.716;6.696;2022-10-17T12:41:54;17.60;99.90
65692;DHT22;52411;52.716;6.696;2022-10-17T12:49:50;17.70;99.90
65692;DHT22;52411;52.716;6.696;2022-10-17T13:00:13;17.60;99.90
65692;DHT22;52411;52.716;6.696;2022-10-17T13:02:40;17.70;99.90
65692;DHT22;52411;52.716;6.696;2022-10-17T13:05:13;17.70;99.90
65692;DHT22;52411;52.716;6.696;2022-10-17T13:07:41;17.60;99.90
65692;DHT22;52411;52.716;6.696;2022-10-17T13:10:19;17.60;99.90
65692;DHT22;52411;52.716;6.696;2022-10-17T13:12:46;17.60;99.90
65692;DHT22;52411;52.716;6.696;2022-10-17T13:15:16;17.50;99.90
65692;DHT22;52411;52.716;6.696;2022-10-17T13:17:43;17.50;99.90
65692;DHT22;52411;52.716;6.696;2022-10-17T13:20:24;17.50;99.90
65692;DHT22;52411;52.716;6.696;2022-10-17T13:22:50;17.50;99.90
65692;DHT22;52411;52.716;6.696;2022-10-17T13:25:19;17.50;99.90
65692;DHT22;52411;52.716;6.696;2022-10-17T13:27:45;17.50;99.90
65692;DHT22;52411;52.716;6.696;2022-10-17T13:30:30;17.50;99.90
65692;DHT22;52411;52.716;6.696;2022-10-17T13:32:56;17.50;99.90
65692;DHT22;52411;52.716;6.696;2022-10-17T13:35:34;17.60;99.90
65692;DHT22;52411;52.716;6.696;2022-10-17T13:38:04;17.60;99.90
65692;DHT22;52411;52.716;6.696;2022-10-17T13:40:38;17.60;99.90
65692;DHT22;52411;52.716;6.696;2022-10-17T13:43:14;17.60;99.90
65692;DHT22;52411;52.716;6.696;2022-10-17T13:45:48;17.60;99.90
65692;DHT22;52411;52.716;6.696;2022-10-17T13:48:21;17.50;99.90
65692;DHT22;52411;52.716;6.696;2022-10-17T13:50:50;17.50;99.90
65692;DHT22;52411;52.716;6.696;2022-10-17T13:53:33;17.50;99.90
65692;DHT22;52411;52.716;6.696;2022-10-17T13:56:02;17.50;99.90
65692;DHT22;52411;52.716;6.696;2022-10-17T13:58:43;17.50;99.90
65692;DHT22;52411;52.716;6.696;2022-10-17T14:01:11;17.50;99.90
65692;DHT22;52411;52.716;6.696;2022-10-17T14:03:37;17.40;99.90
65692;DHT22;52411;52.716;6.696;2022-10-17T14:09:01;17.00;99.90
65692;DHT22;52411;52.716;6.696;2022-10-17T14:11:39;16.80;99.90
65692;DHT22;52411;52.716;6.696;2022-10-17T14:14:18;16.60;99.90
65692;DHT22;52411;52.716;6.696;2022-10-17T14:16:45;16.40;99.90
65692;DHT22;52411;52.716;6.696;2022-10-17T14:19:34;16.30;99.90
65692;DHT22;52411;52.716;6.696;2022-10-17T14:24:45;16.20;99.90
65692;DHT22;52411;52.716;6.696;2022-10-17T14:29:58;16.20;99.90
65692;DHT22;52411;52.716;6.696;2022-10-17T14:32:26;16.20;99.90
65692;DHT22;52411;52.716;6.696;2022-10-17T14:34:58;16.10;99.90
65692;DHT22;52411;52.716;6.696;2022-10-17T14:37:46;16.10;99.90
65692;DHT22;52411;52.716;6.696;2022-10-17T14:40:21;16.00;99.90
65692;DHT22;52411;52.716;6.696;2022-10-17T14:42:51;16.00;99.90
65692;DHT22;52411;52.716;6.696;2022-10-17T14:45:28;16.00;99.90
65692;DHT22;52411;52.716;6.696;2022-10-17T14:47:59;15.90;99.90
65692;DHT22;52411;52.716;6.696;2022-10-17T14:50:28;15.90;99.90
65692;DHT22;52411;52.716;6.696;2022-10-17T14:55:37;15.80;99.90
65692;DHT22;52411;52.716;6.696;2022-10-17T14:58:17;15.80;99.90
65692;DHT22;52411;52.716;6.696;2022-10-17T15:00:43;15.80;99.90
65692;DHT22;52411;52.716;6.696;2022-10-17T15:03:08;15.70;99.90
65692;DHT22;52411;52.716;6.696;2022-10-17T15:05:34;15.70;99.90
65692;DHT22;52411;52.716;6.696;2022-10-17T15:07:59;15.70;99.90
65692;DHT22;52411;52.716;6.696;2022-10-17T15:10:33;15.70;99.90
65692;DHT22;52411;52.716;6.696;2022-10-17T15:13:00;15.80;99.90
65692;DHT22;52411;52.716;6.696;2022-10-17T15:15:29;15.70;99.90
65692;DHT22;52411;52.716;6.696;2022-10-17T15:17:55;15.80;99.90
65692;DHT22;52411;52.716;6.696;2022-10-17T15:20:21;15.80;99.90
65692;DHT22;52411;52.716;6.696;2022-10-17T15:22:52;15.80;99.90
65692;DHT22;52411;52.716;6.696;2022-10-17T15:25:18;15.90;99.90
65692;DHT22;52411;52.716;6.696;2022-10-17T15:27:44;15.90;99.90
65692;DHT22;52411;52.716;6.696;2022-10-17T15:30:26;15.90;99.90
65692;DHT22;52411;52.716;6.696;2022-10-17T15:32:53;15.90;99.90
65692;DHT22;52411;52.716;6.696;2022-10-17T15:35:19;15.90;99.90
65692;DHT22;52411;52.716;6.696;2022-10-17T15:37:46;15.90;99.90
65692;DHT22;52411;52.716;6.696;2022-10-17T15:42:42;16.00;99.90
65692;DHT22;52411;52.716;6.696;2022-10-17T15:45:10;16.00;99.90
65692;DHT22;52411;52.716;6.696;2022-10-17T15:47:36;16.00;99.90
65692;DHT22;52411;52.716;6.696;2022-10-17T15:50:03;16.00;99.90
65692;DHT22;52411;52.716;6.696;2022-10-17T15:52:30;16.00;99.90
65692;DHT22;52411;52.716;6.696;2022-10-17T15:54:56;16.00;99.90
65692;DHT22;52411;52.716;6.696;2022-10-17T15:57:25;16.00;99.90
65692;DHT22;52411;52.716;6.696;2022-10-17T15:59:52;15.90;99.90
65692;DHT22;52411;52.716;6.696;2022-10-17T16:02:19;15.90;99.90
65692;DHT22;52411;52.716;6.696;2022-10-17T16:04:46;15.90;99.90
65692;DHT22;52411;52.716;6.696;2022-10-17T16:07:12;15.90;99.90
65692;DHT22;52411;52.716;6.696;2022-10-17T16:09:38;15.80;99.90
65692;DHT22;52411;52.716;6.696;2022-10-17T16:12:06;15.80;99.90
65692;DHT22;52411;52.716;6.696;2022-10-17T16:14:35;15.70;99.90
65692;DHT22;52411;52.716;6.696;2022-10-17T16:17:00;15.60;99.90
65692;DHT22;52411;52.716;6.696;2022-10-17T16:19:26;15.60;99.90
65692;DHT22;52411;52.716;6.696;2022-10-17T16:21:57;15.50;99.90
65692;DHT22;52411;52.716;6.696;2022-10-17T16:24:25;15.50;99.90
65692;DHT22;52411;52.716;6.696;2022-10-17T16:26:51;15.40;99.90
65692;DHT22;52411;52.716;6.696;2022-10-17T16:29:17;15.40;99.90
65692;DHT22;52411;52.716;6.696;2022-10-17T16:31:44;15.30;99.90
65692;DHT22;52411;52.716;6.696;2022-10-17T16:34:12;15.30;99.90
65692;DHT22;52411;52.716;6.696;2022-10-17T16:36:39;15.20;99.90
65692;DHT22;52411;52.716;6.696;2022-10-17T16:39:05;15.20;99.90
65692;DHT22;52411;52.716;6.696;2022-10-17T16:41:32;15.10;99.90
65692;DHT22;52411;52.716;6.696;2022-10-17T16:44:01;15.10;99.90
65692;DHT22;52411;52.716;6.696;2022-10-17T16:46:28;15.00;99.90
65692;DHT22;52411;52.716;6.696;2022-10-17T16:48:54;14.90;99.90
65692;DHT22;52411;52.716;6.696;2022-10-17T16:51:20;14.90;99.90
65692;DHT22;52411;52.716;6.696;2022-10-17T16:53:48;14.90;99.90
65692;DHT22;52411;52.716;6.696;2022-10-17T16:56:16;14.80;99.90
65692;DHT22;52411;52.716;6.696;2022-10-17T16:58:43;14.80;99.90
65692;DHT22;52411;52.716;6.696;2022-10-17T17:01:14;14.70;99.90
65692;DHT22;52411;52.716;6.696;2022-10-17T17:03:42;14.70;99.90
65692;DHT22;52411;52.716;6.696;2022-10-17T17:06:11;14.70;99.90
65692;DHT22;52411;52.716;6.696;2022-10-17T17:08:38;14.60;99.90
65692;DHT22;52411;52.716;6.696;2022-10-17T17:11:08;14.50;99.90
65692;DHT22;52411;52.716;6.696;2022-10-17T17:13:34;14.50;99.90
65692;DHT22;52411;52.716;6.696;2022-10-17T17:16:14;14.50;99.90
65692;DHT22;52411;52.716;6.696;2022-10-17T17:18:40;14.60;99.90
65692;DHT22;52411;52.716;6.696;2022-10-17T17:21:08;14.60;99.90
65692;DHT22;52411;52.716;6.696;2022-10-17T17:23:37;14.60;99.90
65692;DHT22;52411;52.716;6.696;2022-10-17T17:26:05;14.60;99.90
65692;DHT22;52411;52.716;6.696;2022-10-17T17:28:32;14.70;99.90
65692;DHT22;52411;52.716;6.696;2022-10-17T17:30:58;14.70;99.90
65692;DHT22;52411;52.716;6.696;2022-10-17T17:33:24;14.70;99.90
65692;DHT22;52411;52.716;6.696;2022-10-17T17:35:55;14.70;99.90
65692;DHT22;52411;52.716;6.696;2022-10-17T17:38:21;14.70;99.90
65692;DHT22;52411;52.716;6.696;2022-10-17T17:40:47;14.70;99.90
65692;DHT22;52411;52.716;6.696;2022-10-17T17:43:13;14.70;99.90
65692;DHT22;52411;52.716;6.696;2022-10-17T17:45:39;14.80;99.90